createdAt,value
2022-12-25T00:01:27.783Z,8.26
2022-12-25T00:03:29.815Z,8.25
2022-12-25T00:05:32.023Z,8.20
2022-12-25T00:07:33.630Z,8.18
2022-12-25T00:09:35.202Z,8.19
2022-12-25T00:11:37.370Z,8.17
2022-12-25T00:13:39.223Z,8.18
2022-12-25T00:15:41.564Z,8.15
2022-12-25T00:17:43.328Z,8.14
2022-12-25T00:19:44.911Z,8.12
2022-12-25T00:21:46.848Z,8.13
2022-12-25T00:23:54.527Z,8.18
2022-12-25T00:25:56.790Z,8.09
2022-12-25T00:27:58.446Z,8.09
2022-12-25T00:30:01.858Z,8.09
2022-12-25T00:32:03.593Z,8.18
2022-12-25T00:34:05.145Z,8.17
2022-12-25T00:36:08.376Z,8.09
2022-12-25T00:38:10.552Z,8.08
2022-12-25T00:40:12.649Z,7.98
2022-12-25T00:42:20.744Z,7.98
2022-12-25T00:44:22.433Z,7.97
2022-12-25T00:46:24.205Z,7.92
2022-12-25T00:48:27.113Z,7.96
2022-12-25T00:50:28.811Z,7.86
2022-12-25T00:52:30.480Z,7.87
2022-12-25T00:54:32.317Z,7.84
2022-12-25T00:56:34.275Z,7.85
2022-12-25T00:58:36.282Z,7.86
2022-12-25T01:00:39.499Z,7.81
2022-12-25T01:02:41.469Z,7.71
2022-12-25T01:04:43.176Z,7.77
2022-12-25T01:06:44.768Z,7.80
2022-12-25T01:09:04.948Z,7.82
2022-12-25T01:11:09.019Z,7.86
2022-12-25T01:13:10.801Z,7.90
2022-12-25T01:15:13.125Z,7.96
2022-12-25T01:17:14.821Z,7.98
2022-12-25T01:19:16.335Z,8.00
2022-12-25T01:21:22.012Z,8.01
2022-12-25T01:23:23.703Z,8.06
2022-12-25T01:25:25.639Z,8.03
2022-12-25T01:27:27.470Z,8.05
2022-12-25T01:29:29.095Z,7.95
2022-12-25T01:31:31.083Z,7.83
2022-12-25T01:33:32.984Z,7.83
2022-12-25T01:35:34.704Z,7.81
2022-12-25T01:37:36.321Z,7.77
2022-12-25T01:39:39.007Z,7.80
2022-12-25T01:41:40.599Z,7.74
2022-12-25T01:43:59.773Z,7.64
2022-12-25T01:46:04.156Z,7.61
2022-12-25T01:48:09.949Z,7.59
2022-12-25T01:50:11.712Z,7.67
2022-12-25T01:52:23.502Z,7.75
2022-12-25T01:54:30.177Z,7.67
2022-12-25T01:56:33.609Z,7.67
2022-12-25T01:58:36.453Z,7.72
2022-12-25T02:00:40.688Z,7.66
2022-12-25T02:02:44.390Z,7.74
2022-12-25T02:04:54.562Z,7.73
2022-12-25T02:06:56.956Z,7.71
2022-12-25T02:08:59.181Z,7.69
2022-12-25T02:11:00.707Z,7.67
2022-12-25T02:13:06.885Z,7.78
2022-12-25T02:15:18.576Z,7.76
2022-12-25T02:17:35.331Z,7.78
2022-12-25T02:20:17.979Z,7.71
2022-12-25T02:22:34.486Z,7.69
2022-12-25T02:24:54.154Z,7.77
2022-12-25T02:27:07.116Z,7.73
2022-12-25T02:29:15.808Z,7.84
2022-12-25T02:31:28.900Z,7.82
2022-12-25T02:34:03.295Z,7.78
2022-12-25T02:36:11.341Z,7.72
2022-12-25T02:38:25.008Z,7.76
2022-12-25T02:40:31.889Z,7.84
2022-12-25T02:43:01.697Z,7.94
2022-12-25T02:45:22.607Z,7.97
2022-12-25T02:47:44.476Z,7.92
2022-12-25T02:50:06.013Z,7.91
2022-12-25T02:52:31.650Z,7.97
2022-12-25T02:55:00.584Z,7.98
2022-12-25T02:57:42.104Z,7.95
2022-12-25T03:00:07.023Z,7.93
2022-12-25T03:02:27.888Z,7.93
2022-12-25T03:04:50.088Z,7.94
2022-12-25T03:07:23.412Z,7.94
2022-12-25T03:09:49.815Z,7.89
2022-12-25T03:11:58.963Z,7.91
2022-12-25T03:14:23.733Z,7.93
2022-12-25T03:16:43.830Z,8.01
2022-12-25T03:18:46.384Z,8.05
2022-12-25T03:21:07.056Z,8.07
2022-12-25T03:23:29.703Z,8.10
2022-12-25T03:25:50.494Z,9.99
2022-12-25T03:27:56.573Z,9.72
2022-12-25T03:30:30.896Z,9.49
2022-12-25T03:33:18.064Z,9.25
2022-12-25T03:35:47.902Z,9.01
2022-12-25T03:38:21.440Z,8.90
2022-12-25T03:40:56.056Z,8.69
2022-12-25T03:43:43.735Z,8.43
2022-12-25T03:46:02.130Z,8.41
2022-12-25T03:48:24.006Z,8.32
2022-12-25T03:50:59.755Z,8.35
2022-12-25T03:53:24.452Z,8.21
2022-12-25T03:55:45.460Z,8.13
2022-12-25T03:58:06.072Z,8.06
2022-12-25T04:00:27.141Z,8.10
2022-12-25T04:02:47.946Z,8.12
2022-12-25T04:05:08.134Z,8.19
2022-12-25T04:07:32.999Z,8.18
2022-12-25T04:09:53.379Z,8.17
2022-12-25T04:12:15.946Z,8.08
2022-12-25T04:14:36.351Z,8.06
2022-12-25T04:16:56.666Z,7.99
2022-12-25T04:19:16.669Z,7.96
2022-12-25T04:21:47.577Z,8.01
2022-12-25T04:24:08.043Z,7.97
2022-12-25T04:26:28.549Z,7.99
2022-12-25T04:28:48.956Z,7.92
2022-12-25T04:31:09.136Z,7.88
2022-12-25T04:33:29.598Z,7.87
2022-12-25T04:35:50.321Z,7.76
2022-12-25T04:37:52.588Z,7.71
2022-12-25T04:39:54.310Z,7.64
2022-12-25T04:41:56.054Z,7.47
2022-12-25T04:43:57.781Z,7.50
2022-12-25T04:46:01.309Z,7.52
2022-12-25T04:48:02.972Z,7.51
2022-12-25T04:50:05.149Z,7.50
2022-12-25T04:52:06.696Z,7.52
2022-12-25T04:54:08.256Z,7.42
2022-12-25T04:56:10.083Z,7.40
2022-12-25T04:58:11.747Z,7.45
2022-12-25T05:01:59.004Z,9.39
2022-12-25T05:04:00.868Z,10.06
2022-12-25T05:06:04.544Z,10.95
2022-12-25T05:08:06.296Z,12.19
2022-12-25T05:10:08.641Z,13.14
2022-12-25T05:12:11.266Z,14.33
2022-12-25T05:14:12.814Z,15.09
2022-12-25T05:16:18.129Z,13.84
2022-12-25T05:18:19.747Z,13.40
2022-12-25T05:20:21.280Z,13.62
2022-12-25T05:22:22.840Z,14.56
2022-12-25T05:24:28.431Z,15.23
2022-12-25T05:26:30.028Z,15.99
2022-12-25T05:28:31.587Z,16.08
2022-12-25T05:30:34.344Z,16.31
2022-12-25T05:32:36.271Z,16.42
2022-12-25T05:34:38.228Z,16.77
2022-12-25T05:36:41.278Z,16.92
2022-12-25T05:38:43.160Z,15.91
2022-12-25T05:40:45.415Z,14.70
2022-12-25T05:42:46.959Z,14.33
2022-12-25T05:44:48.692Z,14.97
2022-12-25T05:46:50.496Z,14.32
2022-12-25T05:48:52.483Z,14.86
2022-12-25T05:50:54.056Z,15.36
2022-12-25T05:52:55.757Z,15.84
2022-12-25T05:54:57.603Z,16.22
2022-12-25T05:56:59.395Z,16.46
2022-12-25T05:59:01.072Z,16.68
2022-12-25T06:01:03.094Z,16.68
2022-12-25T06:03:04.892Z,14.90
2022-12-25T06:05:07.650Z,14.20
2022-12-25T06:07:09.524Z,13.86
2022-12-25T06:09:13.321Z,12.49
2022-12-25T06:11:15.624Z,12.82
2022-12-25T06:13:17.270Z,12.64
2022-12-25T06:15:19.131Z,12.90
2022-12-25T06:17:20.789Z,13.40
2022-12-25T06:19:22.912Z,12.94
2022-12-25T06:21:24.672Z,13.13
2022-12-25T06:23:26.290Z,12.50
2022-12-25T06:25:27.963Z,13.01
2022-12-25T06:27:30.194Z,13.37
2022-12-25T06:29:31.770Z,13.43
2022-12-25T06:31:33.580Z,13.46
2022-12-25T06:33:36.100Z,14.10
2022-12-25T06:35:40.132Z,14.76
2022-12-25T06:37:41.966Z,14.12
2022-12-25T06:39:43.990Z,14.83
2022-12-25T06:41:45.536Z,14.76
2022-12-25T06:43:49.376Z,13.65
2022-12-25T06:45:53.015Z,13.37
2022-12-25T06:47:55.029Z,13.32
2022-12-25T06:49:56.704Z,13.09
2022-12-25T06:51:58.249Z,12.64
2022-12-25T06:54:03.615Z,12.13
2022-12-25T06:56:15.595Z,11.17
2022-12-25T06:58:17.259Z,10.75
2022-12-25T07:00:19.352Z,10.21
2022-12-25T07:02:23.015Z,10.16
2022-12-25T07:04:32.086Z,9.41
2022-12-25T07:06:34.627Z,9.24
2022-12-25T07:08:36.186Z,9.51
2022-12-25T07:10:38.053Z,9.41
2022-12-25T07:12:39.614Z,9.01
2022-12-25T07:14:41.242Z,9.25
2022-12-25T07:16:43.376Z,9.32
2022-12-25T07:18:45.041Z,9.44
2022-12-25T07:20:46.875Z,9.49
2022-12-25T07:22:48.405Z,9.67
2022-12-25T07:24:50.018Z,9.91
2022-12-25T07:26:53.247Z,10.00
2022-12-25T07:28:56.023Z,10.14
2022-12-25T07:31:04.987Z,10.06
2022-12-25T07:33:06.618Z,9.98
2022-12-25T07:35:08.658Z,10.03
2022-12-25T07:37:10.666Z,10.23
2022-12-25T07:39:12.467Z,10.58
2022-12-25T07:41:14.097Z,10.29
2022-12-25T07:43:15.803Z,10.26
2022-12-25T07:45:17.513Z,10.52
2022-12-25T07:47:19.105Z,10.44
2022-12-25T07:49:20.744Z,10.52
2022-12-25T07:51:23.399Z,10.94
2022-12-25T07:53:25.404Z,10.23
2022-12-25T07:55:26.959Z,10.29
2022-12-25T07:57:29.635Z,10.39
2022-12-25T07:59:31.489Z,10.34
2022-12-25T08:01:33.383Z,10.25
2022-12-25T08:03:36.072Z,10.20
2022-12-25T08:05:37.859Z,10.36
2022-12-25T08:07:39.479Z,10.04
2022-12-25T08:09:41.399Z,9.70
2022-12-25T08:11:47.190Z,9.48
2022-12-25T08:13:48.853Z,8.86
2022-12-25T08:15:50.625Z,9.01
2022-12-25T08:17:52.704Z,9.18
2022-12-25T08:19:54.278Z,9.20
2022-12-25T08:21:56.111Z,9.23
2022-12-25T08:23:58.085Z,9.47
2022-12-25T08:26:04.961Z,9.15
2022-12-25T08:28:07.341Z,9.14
2022-12-25T08:30:09.282Z,9.11
2022-12-25T08:32:10.936Z,8.92
2022-12-25T08:34:13.044Z,8.48
2022-12-25T08:36:16.862Z,8.37
2022-12-25T08:38:18.476Z,8.48
2022-12-25T08:40:20.010Z,8.60
2022-12-25T08:42:21.975Z,8.54
2022-12-25T08:44:23.492Z,8.51
2022-12-25T08:46:25.299Z,8.44
2022-12-25T08:48:27.168Z,8.52
2022-12-25T08:50:28.742Z,8.61
2022-12-25T08:52:30.396Z,8.72
2022-12-25T08:54:33.704Z,8.45
2022-12-25T08:56:36.533Z,8.41
2022-12-25T08:58:38.136Z,8.66
2022-12-25T09:00:40.874Z,8.51
2022-12-25T09:02:42.920Z,9.13
2022-12-25T09:04:46.775Z,9.21
2022-12-25T09:06:48.553Z,9.15
2022-12-25T09:08:50.327Z,8.87
2022-12-25T09:10:51.993Z,8.56
2022-12-25T09:12:53.718Z,8.66
2022-12-25T09:14:55.660Z,8.71
2022-12-25T09:16:57.384Z,8.64
2022-12-25T09:18:59.109Z,8.57
2022-12-25T09:21:03.679Z,8.59
2022-12-25T09:23:11.695Z,8.64
2022-12-25T09:25:15.335Z,8.59
2022-12-25T09:27:17.140Z,8.65
2022-12-25T09:29:18.940Z,10.07
2022-12-25T09:31:23.034Z,11.51
2022-12-25T09:33:25.219Z,11.70
2022-12-25T09:35:27.103Z,10.53
2022-12-25T09:37:29.214Z,10.09
2022-12-25T09:39:30.889Z,9.87
2022-12-25T09:42:00.317Z,9.45
2022-12-25T09:44:18.943Z,9.25
2022-12-25T09:46:25.126Z,9.11
2022-12-25T09:48:30.700Z,9.02
2022-12-25T09:50:44.075Z,8.46
2022-12-25T09:53:02.467Z,8.57
2022-12-25T09:55:20.615Z,8.55
2022-12-25T09:57:25.326Z,8.64
2022-12-25T09:59:27.338Z,8.44
2022-12-25T10:01:40.503Z,8.58
2022-12-25T10:04:05.780Z,8.64
2022-12-25T10:06:22.412Z,8.52
2022-12-25T10:08:42.097Z,8.36
2022-12-25T10:10:50.201Z,8.38
2022-12-25T10:13:22.526Z,8.38
2022-12-25T10:15:39.210Z,8.26
2022-12-25T10:18:03.403Z,8.21
2022-12-25T10:20:22.080Z,8.24
2022-12-25T10:22:43.989Z,8.31
2022-12-25T10:24:50.834Z,8.13
2022-12-25T10:26:55.562Z,7.94
2022-12-25T10:29:05.755Z,7.92
2022-12-25T10:31:20.097Z,8.03
2022-12-25T10:33:22.050Z,8.11
2022-12-25T10:35:27.225Z,7.97
2022-12-25T10:37:28.797Z,8.03
2022-12-25T10:39:30.704Z,8.09
2022-12-25T10:41:53.792Z,8.06
2022-12-25T10:43:56.894Z,8.02
2022-12-25T10:45:59.303Z,7.84
2022-12-25T10:48:07.734Z,8.01
2022-12-25T10:50:22.953Z,8.01
2022-12-25T10:52:28.652Z,8.14
2022-12-25T10:54:31.420Z,8.06
2022-12-25T10:56:33.087Z,8.22
2022-12-25T10:58:34.652Z,8.23
2022-12-25T11:00:36.285Z,8.31
2022-12-25T11:02:40.717Z,8.43
2022-12-25T11:04:43.161Z,8.37
2022-12-25T11:06:44.721Z,8.23
2022-12-25T11:08:51.478Z,8.38
2022-12-25T11:10:59.388Z,8.60
2022-12-25T11:13:02.456Z,8.69
2022-12-25T11:15:26.337Z,8.77
2022-12-25T11:17:28.440Z,8.79
2022-12-25T11:19:32.264Z,8.67
2022-12-25T11:21:36.924Z,8.19
2022-12-25T11:23:45.177Z,8.37
2022-12-25T11:26:04.867Z,8.43
2022-12-25T11:28:07.089Z,8.52
2022-12-25T11:30:16.204Z,8.50
2022-12-25T11:32:41.633Z,8.56
2022-12-25T11:34:45.848Z,8.49
2022-12-25T11:36:49.310Z,8.66
2022-12-25T11:38:51.531Z,8.74
2022-12-25T11:40:58.438Z,8.78
2022-12-25T11:43:31.308Z,8.54
2022-12-25T11:45:40.704Z,8.20
2022-12-25T11:47:57.386Z,7.94
2022-12-25T11:50:23.380Z,7.90
2022-12-25T11:52:31.688Z,7.82
2022-12-25T11:54:45.245Z,7.95
2022-12-25T11:56:46.958Z,8.05
2022-12-25T11:58:55.260Z,8.15
2022-12-25T12:00:59.521Z,8.09
2022-12-25T12:03:06.656Z,8.23
2022-12-25T12:05:16.444Z,8.13
2022-12-25T12:07:29.072Z,8.17
2022-12-25T12:09:43.113Z,8.19
2022-12-25T12:11:58.336Z,8.22
2022-12-25T12:14:18.128Z,8.25
2022-12-25T12:16:19.865Z,8.18
2022-12-25T12:18:22.999Z,8.32
2022-12-25T12:20:30.798Z,8.41
2022-12-25T12:22:32.556Z,8.48
2022-12-25T12:24:41.071Z,8.52
2022-12-25T12:26:45.350Z,8.51
2022-12-25T12:28:48.535Z,8.47
2022-12-25T12:31:05.217Z,8.40
2022-12-25T12:33:08.089Z,8.38
2022-12-25T12:35:17.851Z,8.49
2022-12-25T12:37:31.677Z,8.50
2022-12-25T12:39:39.254Z,8.56
2022-12-25T12:41:47.411Z,8.72
2022-12-25T12:43:58.776Z,8.72
2022-12-25T12:46:30.666Z,8.67
2022-12-25T12:48:40.273Z,8.77
2022-12-25T12:50:42.877Z,8.72
2022-12-25T12:52:44.428Z,8.84
2022-12-25T12:54:58.949Z,8.80
2022-12-25T12:57:25.134Z,8.75
2022-12-25T12:59:40.661Z,8.77
2022-12-25T13:02:06.415Z,8.92
2022-12-25T13:04:32.220Z,9.08
2022-12-25T13:06:38.353Z,9.10
2022-12-25T13:08:40.071Z,9.16
2022-12-25T13:10:48.626Z,9.09
2022-12-25T13:12:52.372Z,9.09
2022-12-25T13:14:54.149Z,9.15
2022-12-25T13:16:55.964Z,9.22
2022-12-25T13:18:58.764Z,9.42
2022-12-25T13:21:04.863Z,9.57
2022-12-25T13:23:28.012Z,9.62
2022-12-25T13:25:29.646Z,9.75
2022-12-25T13:27:33.046Z,9.84
2022-12-25T13:29:38.526Z,9.80
2022-12-25T13:31:40.908Z,9.82
2022-12-25T13:33:51.144Z,9.97
2022-12-25T13:35:53.766Z,9.94
2022-12-25T13:37:56.510Z,9.87
2022-12-25T13:40:06.307Z,9.82
2022-12-25T13:42:10.667Z,9.72
2022-12-25T13:44:24.235Z,9.83
2022-12-25T13:46:27.770Z,9.78
2022-12-25T13:48:31.322Z,9.73
2022-12-25T13:50:34.723Z,9.70
2022-12-25T13:52:38.048Z,9.66
2022-12-25T13:54:40.090Z,9.62
2022-12-25T13:56:51.089Z,9.76
2022-12-25T13:58:52.736Z,9.64
2022-12-25T14:00:57.523Z,9.59
2022-12-25T14:02:59.744Z,9.57
2022-12-25T14:05:01.917Z,9.46
2022-12-25T14:07:11.739Z,9.23
2022-12-25T14:09:14.272Z,9.07
2022-12-25T14:11:17.239Z,9.10
2022-12-25T14:13:22.375Z,8.95
2022-12-25T14:15:28.402Z,8.82
2022-12-25T14:17:30.408Z,8.93
2022-12-25T14:19:34.079Z,8.92
2022-12-25T14:21:49.045Z,8.72
2022-12-25T14:23:51.266Z,8.51
2022-12-25T14:25:53.087Z,8.25
2022-12-25T14:27:55.285Z,8.26
2022-12-25T14:29:59.055Z,8.34
2022-12-25T14:32:04.531Z,8.51
2022-12-25T14:34:20.660Z,8.48
2022-12-25T14:36:22.276Z,8.56
2022-12-25T14:38:29.272Z,8.67
2022-12-25T14:40:32.339Z,8.75
2022-12-25T14:42:37.076Z,8.84
2022-12-25T14:44:40.944Z,8.76
2022-12-25T14:46:42.681Z,8.70
2022-12-25T14:48:44.428Z,8.74
2022-12-25T14:51:08.912Z,8.74
2022-12-25T14:53:24.705Z,8.79
2022-12-25T14:55:30.771Z,8.83
2022-12-25T14:57:36.815Z,8.66
2022-12-25T14:59:38.939Z,8.73
2022-12-25T15:01:42.072Z,8.68
2022-12-25T15:03:43.993Z,8.61
2022-12-25T15:05:45.789Z,8.66
2022-12-25T15:07:58.467Z,8.70
2022-12-25T15:10:36.506Z,8.75
2022-12-25T15:12:22.548Z,8.60
2022-12-25T15:14:25.819Z,8.65
2022-12-25T15:17:00.573Z,8.68
2022-12-25T15:19:02.526Z,8.72
2022-12-25T15:21:05.003Z,8.70
2022-12-25T15:23:25.064Z,8.71
2022-12-25T15:25:28.901Z,8.69
2022-12-25T15:27:30.545Z,8.69
2022-12-25T15:30:08.025Z,8.70
2022-12-25T15:31:54.108Z,8.73
2022-12-25T15:33:58.243Z,8.70
2022-12-25T15:35:59.973Z,8.65
2022-12-25T15:38:01.676Z,8.60
2022-12-25T15:40:06.352Z,8.59
2022-12-25T15:42:16.920Z,8.55
2022-12-25T15:44:18.614Z,8.48
2022-12-25T15:46:24.424Z,8.45
2022-12-25T15:48:26.078Z,8.45
2022-12-25T15:50:27.768Z,8.42
2022-12-25T15:52:29.358Z,8.42
2022-12-25T15:54:32.329Z,8.36
2022-12-25T15:56:42.318Z,8.35
2022-12-25T15:58:43.932Z,8.39
2022-12-25T16:00:45.475Z,8.35
2022-12-25T16:02:47.291Z,8.33
2022-12-25T16:04:50.876Z,8.29
2022-12-25T16:06:53.020Z,8.31
2022-12-25T16:08:54.583Z,8.31
2022-12-25T16:10:56.187Z,8.34
2022-12-25T16:12:58.094Z,8.32
2022-12-25T16:14:59.787Z,8.33
2022-12-25T16:17:01.380Z,8.26
2022-12-25T16:19:03.622Z,8.26
2022-12-25T16:21:05.690Z,8.26
2022-12-25T16:23:07.470Z,8.22
2022-12-25T16:25:14.587Z,8.10
2022-12-25T16:27:16.113Z,8.03
2022-12-25T16:29:17.654Z,8.04
2022-12-25T16:31:19.453Z,8.10
2022-12-25T16:33:21.063Z,8.10
2022-12-25T16:35:22.674Z,8.09
2022-12-25T16:37:24.653Z,8.14
2022-12-25T16:39:26.190Z,8.11
2022-12-25T16:41:28.346Z,8.13
2022-12-25T16:43:29.960Z,8.15
2022-12-25T16:45:31.628Z,8.15
2022-12-25T16:47:33.832Z,8.15
2022-12-25T16:49:35.606Z,8.18
2022-12-25T16:51:37.436Z,8.14
2022-12-25T16:53:39.226Z,8.11
2022-12-25T16:55:41.198Z,8.14
2022-12-25T16:57:42.783Z,8.17
2022-12-25T16:59:44.326Z,8.22
2022-12-25T17:01:46.384Z,8.03
2022-12-25T17:03:49.037Z,7.79
2022-12-25T17:05:50.671Z,7.77
2022-12-25T17:07:52.291Z,7.80
2022-12-25T17:09:53.813Z,7.86
2022-12-25T17:11:55.351Z,7.92
2022-12-25T17:14:02.593Z,7.99
2022-12-25T17:16:18.583Z,8.04
2022-12-25T17:18:22.013Z,8.06
2022-12-25T17:20:23.651Z,8.06
2022-12-25T17:22:25.264Z,8.02
2022-12-25T17:24:27.702Z,7.99
2022-12-25T17:26:29.250Z,7.96
2022-12-25T17:28:31.322Z,7.96
2022-12-25T17:30:33.731Z,7.93
2022-12-25T17:32:35.583Z,7.91
2022-12-25T17:34:38.199Z,7.87
2022-12-25T17:36:39.900Z,7.89
2022-12-25T17:38:41.757Z,7.84
2022-12-25T17:40:43.366Z,7.81
2022-12-25T17:42:45.756Z,7.85
2022-12-25T17:44:47.363Z,7.76
2022-12-25T17:46:50.222Z,7.80
2022-12-25T17:48:54.929Z,7.74
2022-12-25T17:51:01.482Z,7.75
2022-12-25T17:53:05.149Z,7.67
2022-12-25T17:55:07.276Z,7.61
2022-12-25T17:57:08.962Z,7.56
2022-12-25T17:59:17.974Z,7.54
2022-12-25T18:01:20.471Z,7.50
2022-12-25T18:03:22.565Z,7.53
2022-12-25T18:05:24.359Z,7.50
2022-12-25T18:07:26.032Z,7.48
2022-12-25T18:09:27.860Z,7.40
2022-12-25T18:11:33.120Z,7.38
2022-12-25T18:13:35.113Z,7.36
2022-12-25T18:15:39.388Z,7.30
2022-12-25T18:17:42.150Z,7.33
2022-12-25T18:19:43.758Z,7.32
2022-12-25T18:21:45.724Z,7.38
2022-12-25T18:23:47.800Z,7.43
2022-12-25T18:25:49.637Z,7.35
2022-12-25T18:27:52.823Z,7.37
2022-12-25T18:29:54.395Z,7.41
2022-12-25T18:31:56.009Z,7.38
2022-12-25T18:33:59.214Z,7.42
2022-12-25T18:36:01.454Z,7.36
2022-12-25T18:38:03.668Z,7.28
2022-12-25T18:40:05.977Z,7.23
2022-12-25T18:42:26.085Z,7.25
2022-12-25T18:44:29.413Z,7.28
2022-12-25T18:46:31.146Z,7.32
2022-12-25T18:48:34.146Z,7.21
2022-12-25T18:50:39.184Z,7.12
2022-12-25T18:52:48.031Z,7.21
2022-12-25T18:54:52.934Z,7.24
2022-12-25T18:56:54.523Z,7.41
2022-12-25T18:58:59.484Z,7.46
2022-12-25T19:01:01.212Z,7.59
2022-12-25T19:03:03.448Z,7.82
2022-12-25T19:05:05.944Z,8.17
2022-12-25T19:07:07.467Z,8.42
2022-12-25T19:09:12.167Z,8.55
2022-12-25T19:11:13.881Z,8.83
2022-12-25T19:13:15.420Z,8.96
2022-12-25T19:15:16.997Z,9.20
2022-12-25T19:17:19.098Z,9.23
2022-12-25T19:19:21.411Z,9.34
2022-12-25T19:21:23.611Z,9.37
2022-12-25T19:23:25.161Z,9.48
2022-12-25T19:25:27.733Z,9.70
2022-12-25T19:27:29.399Z,9.72
2022-12-25T19:29:32.082Z,9.82
2022-12-25T19:31:34.696Z,9.81
2022-12-25T19:33:38.296Z,9.87
2022-12-25T19:35:41.410Z,10.13
2022-12-25T19:37:42.991Z,10.08
2022-12-25T19:39:46.733Z,10.12
2022-12-25T19:41:48.709Z,10.21
2022-12-25T19:43:50.544Z,10.26
2022-12-25T19:45:52.124Z,10.33
2022-12-25T19:47:53.990Z,10.24
2022-12-25T19:50:00.890Z,10.30
2022-12-25T19:52:04.381Z,10.50
2022-12-25T19:54:07.019Z,10.42
2022-12-25T19:56:08.608Z,10.44
2022-12-25T19:58:10.513Z,10.45
2022-12-25T20:00:12.371Z,10.47
2022-12-25T20:02:16.893Z,10.47
2022-12-25T20:04:18.935Z,10.49
2022-12-25T20:06:30.691Z,10.46
2022-12-25T20:08:32.927Z,10.56
2022-12-25T20:10:34.566Z,10.64
2022-12-25T20:12:36.400Z,10.73
2022-12-25T20:14:38.037Z,10.67
2022-12-25T20:16:40.415Z,10.66
2022-12-25T20:18:42.548Z,10.68
2022-12-25T20:20:45.086Z,10.64
2022-12-25T20:22:46.767Z,10.69
2022-12-25T20:24:49.157Z,10.71
2022-12-25T20:26:56.985Z,10.69
2022-12-25T20:29:00.710Z,10.68
2022-12-25T20:31:16.970Z,10.77
2022-12-25T20:33:18.699Z,10.70
2022-12-25T20:35:20.286Z,10.73
2022-12-25T20:37:21.937Z,10.73
2022-12-25T20:39:23.508Z,10.73
2022-12-25T20:41:27.293Z,10.73
2022-12-25T20:43:29.447Z,10.71
2022-12-25T20:45:31.213Z,10.73
2022-12-25T20:47:35.029Z,10.65
2022-12-25T20:49:36.721Z,10.61
2022-12-25T20:51:38.780Z,10.63
2022-12-25T20:53:41.331Z,10.66
2022-12-25T20:55:50.068Z,10.58
2022-12-25T20:57:51.856Z,10.61
2022-12-25T20:59:54.394Z,10.63
2022-12-25T21:01:56.580Z,10.58
2022-12-25T21:03:59.423Z,10.61
2022-12-25T21:06:02.006Z,10.72
2022-12-25T21:08:03.493Z,10.63
2022-12-25T21:10:05.741Z,10.61
2022-12-25T21:12:08.649Z,10.62
2022-12-25T21:14:10.201Z,10.59
2022-12-25T21:16:19.001Z,10.62
2022-12-25T21:18:22.484Z,10.55
2022-12-25T21:20:24.129Z,10.56
2022-12-25T21:22:26.684Z,10.60
2022-12-25T21:24:28.405Z,10.60
2022-12-25T21:26:32.185Z,10.62
2022-12-25T21:28:34.176Z,10.55
2022-12-25T21:30:36.641Z,10.65
2022-12-25T21:33:00.435Z,10.63
2022-12-25T21:35:02.183Z,10.65
2022-12-25T21:37:07.151Z,10.70
2022-12-25T21:39:11.386Z,10.63
2022-12-25T21:41:14.762Z,10.68
2022-12-25T21:43:16.627Z,10.66
2022-12-25T21:45:18.164Z,10.71
2022-12-25T21:47:19.863Z,10.70
2022-12-25T21:49:40.195Z,10.70
2022-12-25T21:52:00.379Z,10.71
2022-12-25T21:54:02.783Z,10.66
2022-12-25T21:56:05.737Z,10.60
2022-12-25T21:58:07.318Z,10.47
2022-12-25T22:00:09.617Z,10.46
2022-12-25T22:02:11.960Z,10.41
2022-12-25T22:04:15.274Z,10.56
2022-12-25T22:06:35.306Z,10.60
2022-12-25T22:08:37.069Z,10.51
2022-12-25T22:10:38.666Z,10.49
2022-12-25T22:12:59.389Z,10.41
2022-12-25T22:15:06.525Z,10.35
2022-12-25T22:17:28.265Z,10.35
2022-12-25T22:19:45.351Z,10.44
2022-12-25T22:21:47.563Z,10.43
2022-12-25T22:23:49.297Z,10.56
2022-12-25T22:25:50.894Z,10.45
2022-12-25T22:27:53.242Z,10.41
2022-12-25T22:29:54.785Z,10.45
2022-12-25T22:31:56.342Z,10.44
2022-12-25T22:33:58.298Z,10.40
2022-12-25T22:36:04.593Z,10.44
2022-12-25T22:38:07.214Z,10.55
2022-12-25T22:40:11.575Z,10.62
2022-12-25T22:42:13.331Z,10.50
2022-12-25T22:44:17.587Z,10.48
2022-12-25T22:46:20.111Z,10.41
2022-12-25T22:48:21.735Z,10.41
2022-12-25T22:50:24.542Z,10.47
2022-12-25T22:52:27.255Z,10.49
2022-12-25T22:54:31.516Z,10.41
2022-12-25T22:56:33.124Z,10.50
2022-12-25T22:58:35.150Z,10.44
2022-12-25T23:00:40.939Z,10.47
2022-12-25T23:02:47.951Z,10.50
2022-12-25T23:04:49.744Z,10.58
2022-12-25T23:06:51.895Z,10.50
2022-12-25T23:08:53.734Z,10.49
2022-12-25T23:10:55.613Z,10.51
2022-12-25T23:13:15.752Z,10.56
2022-12-25T23:15:17.297Z,10.63
2022-12-25T23:17:37.652Z,10.54
2022-12-25T23:19:57.713Z,10.57
2022-12-25T23:22:28.694Z,10.69
2022-12-25T23:24:49.603Z,10.56
2022-12-25T23:26:52.636Z,10.54
2022-12-25T23:29:13.478Z,10.48
2022-12-25T23:31:15.368Z,10.54
2022-12-25T23:33:17.027Z,10.64
2022-12-25T23:35:18.736Z,10.68
2022-12-25T23:37:20.722Z,10.66
2022-12-25T23:39:22.500Z,10.58
2022-12-25T23:41:24.144Z,10.59
2022-12-25T23:43:25.707Z,10.50
2022-12-25T23:45:27.509Z,10.42
2022-12-25T23:47:29.278Z,10.63
2022-12-25T23:49:30.925Z,10.59
2022-12-25T23:51:35.145Z,10.62
2022-12-25T23:53:36.832Z,10.64
2022-12-25T23:55:38.616Z,10.53
2022-12-25T23:57:40.184Z,10.61
2022-12-25T23:59:41.887Z,10.63
